Time;durP1;ratioP1;P1;durP2;ratioP2;P2;SDS_P1;SDS_P2;PMS_P1;PMS_P2;Temp;Humidity;BMP_temperature;BMP_pressure;BME280_temperature;BME280_humidity;BME280_pressure;Samples;Min_cycle;Max_cycle;Signal;HPM_P1;HPM_P2
2024/03/10 00:02:14;;;;;;;60.33;30.08;;;;;;;;;;4981745;28;20094;-80
2024/03/10 00:04:41;;;;;;;54.92;28.17;;;;;;;;;;4984135;28;20104;-81
2024/03/10 00:07:11;;;;;;;48.80;26.65;;;;;;;;;;4973887;28;20058;-79
2024/03/10 00:09:49;;;;;;;53.20;28.15;;;;;;;;;;4990573;28;20041;-79
2024/03/10 00:12:14;;;;;;;52.30;27.70;;;;;;;;;;4979773;28;20038;-80
2024/03/10 00:14:40;;;;;;;55.35;27.83;;;;;;;;;;4997749;28;20084;-80
2024/03/10 00:17:09;;;;;;;53.83;27.38;;;;;;;;;;4991002;28;20030;-81
2024/03/10 00:19:50;;;;;;;53.60;28.73;;;;;;;;;;4989274;28;20112;-80
2024/03/10 00:22:16;;;;;;;57.70;29.35;;;;;;;;;;4974473;28;20026;-80
2024/03/10 00:24:42;;;;;;;51.85;27.30;;;;;;;;;;4980053;28;20022;-79
2024/03/10 00:27:08;;;;;;;52.22;28.15;;;;;;;;;;4975027;28;20452;-81
2024/03/10 00:29:34;;;;;;;53.25;28.27;;;;;;;;;;4980184;28;20034;-79
2024/03/10 00:32:00;;;;;;;50.80;28.70;;;;;;;;;;5009112;28;20030;-80
2024/03/10 00:34:26;;;;;;;53.80;27.88;;;;;;;;;;4978509;28;20035;-80
2024/03/10 00:36:51;;;;;;;54.05;28.10;;;;;;;;;;4983032;28;20037;-79
2024/03/10 00:39:17;;;;;;;48.58;26.70;;;;;;;;;;4996151;28;20110;-81
2024/03/10 00:41:47;;;;;;;50.33;27.58;;;;;;;;;;5013907;28;20087;-80
2024/03/10 00:44:14;;;;;;;46.47;26.58;;;;;;;;;;4988583;28;20037;-80
2024/03/10 00:46:43;;;;;;;51.53;27.45;;;;;;;;;;4991377;28;20019;-82
2024/03/10 00:49:14;;;;;;;49.50;27.30;;;;;;;;;;4999613;28;20095;-80
2024/03/10 00:51:41;;;;;;;51.25;27.45;;;;;;;;;;4987847;28;20050;-80
2024/03/10 00:54:09;;;;;;;49.88;26.90;;;;;;;;;;4993618;28;20401;-79
2024/03/10 00:56:35;;;;;;;47.97;27.30;;;;;;;;;;4980759;28;20038;-80
2024/03/10 00:59:01;;;;;;;49.38;26.45;;;;;;;;;;5012278;28;20405;-80
2024/03/10 01:01:27;;;;;;;47.58;26.70;;;;;;;;;;4998986;28;20053;-79
2024/03/10 01:03:53;;;;;;;48.88;26.65;;;;;;;;;;5025175;28;20027;-81
2024/03/10 01:06:20;;;;;;;51.90;27.67;;;;;;;;;;5022002;28;20049;-79
2024/03/10 01:08:46;;;;;;;52.15;26.90;;;;;;;;;;5006660;28;20030;-80
2024/03/10 01:11:15;;;;;;;49.22;26.80;;;;;;;;;;5004445;28;20042;-81
2024/03/10 01:13:40;;;;;;;49.80;27.20;;;;;;;;;;4985760;28;20030;-80
2024/03/10 01:16:07;;;;;;;48.95;27.20;;;;;;;;;;5004936;28;20033;-80
2024/03/10 01:18:34;;;;;;;49.58;27.13;;;;;;;;;;5021889;28;20082;-81
2024/03/10 01:21:00;;;;;;;46.60;25.48;;;;;;;;;;5020719;28;20026;-79
2024/03/10 01:23:25;;;;;;;53.88;27.35;;;;;;;;;;5002224;28;20041;-79
2024/03/10 01:25:51;;;;;;;49.00;25.65;;;;;;;;;;5009359;28;20030;-79
2024/03/10 01:28:18;;;;;;;51.53;27.70;;;;;;;;;;5022717;28;20036;-80
2024/03/10 01:30:50;;;;;;;49.22;26.35;;;;;;;;;;5004114;28;20059;-79
2024/03/10 01:33:17;;;;;;;50.53;27.52;;;;;;;;;;5015301;28;20589;-79
2024/03/10 01:35:42;;;;;;;53.25;26.20;;;;;;;;;;4996566;28;20537;-79
2024/03/10 01:38:08;;;;;;;50.22;26.77;;;;;;;;;;5005352;28;20068;-80
2024/03/10 01:40:34;;;;;;;50.33;26.48;;;;;;;;;;4977363;28;20026;-79
2024/03/10 01:43:02;;;;;;;46.55;26.13;;;;;;;;;;4991470;28;20101;-80
2024/03/10 01:45:32;;;;;;;44.78;24.77;;;;;;;;;;4989503;28;20036;-81
2024/03/10 01:48:03;;;;;;;44.78;26.40;;;;;;;;;;4990048;28;20425;-79
2024/03/10 01:50:28;;;;;;;47.53;26.95;;;;;;;;;;5005318;28;20030;-80
2024/03/10 01:52:54;;;;;;;48.72;26.08;;;;;;;;;;5010170;28;20033;-80
2024/03/10 01:55:20;;;;;;;46.03;25.70;;;;;;;;;;4961911;28;20035;-80
2024/03/10 01:57:52;;;;;;;46.03;24.80;;;;;;;;;;5020867;28;20041;-79
2024/03/10 02:00:26;;;;;;;46.65;25.65;;;;;;;;;;5011230;28;20030;-79
2024/03/10 02:03:18;;;;;;;49.40;26.05;;;;;;;;;;4981361;28;20062;-80
2024/03/10 02:05:46;;;;;;;43.22;23.00;;;;;;;;;;4992867;28;20030;-78
2024/03/10 02:08:14;;;;;;;47.95;25.15;;;;;;;;;;5001148;28;20095;-80
2024/03/10 02:10:48;;;;;;;42.72;25.30;;;;;;;;;;5000065;28;20030;-80
2024/03/10 02:13:17;;;;;;;43.63;24.67;;;;;;;;;;4998935;28;20128;-80
2024/03/10 02:15:42;;;;;;;;;;;;;;;;;;4995888;28;20184;-80
2024/03/10 02:18:12;;;;;;;41.22;23.05;;;;;;;;;;5010427;28;19961;-80
2024/03/10 02:20:38;;;;;;;41.50;23.05;;;;;;;;;;5000157;28;20477;-80
2024/03/10 02:23:07;;;;;;;43.22;24.23;;;;;;;;;;4998230;28;20034;-80
2024/03/10 02:25:41;;;;;;;44.25;24.50;;;;;;;;;;5003451;28;20034;-80
2024/03/10 02:28:20;;;;;;;43.67;22.92;;;;;;;;;;5020162;28;20034;-80
2024/03/10 02:30:57;;;;;;;41.95;23.02;;;;;;;;;;5018920;28;20069;-78
2024/03/10 02:47:27;;;;;;;39.22;21.58;;;;;;;;;;5002227;28;20485;-81
2024/03/10 02:49:56;;;;;;;38.88;21.63;;;;;;;;;;5006942;28;20118;-80
2024/03/10 02:52:28;;;;;;;36.33;21.70;;;;;;;;;;5003025;28;20135;-80
2024/03/10 02:54:56;;;;;;;37.55;20.25;;;;;;;;;;5005181;28;20085;-79
2024/03/10 02:57:22;;;;;;;40.60;21.63;;;;;;;;;;5009116;28;20030;-80
2024/03/10 02:59:56;;;;;;;36.35;21.48;;;;;;;;;;5006234;28;20038;-80
2024/03/10 03:02:29;;;;;;;39.83;21.67;;;;;;;;;;4997088;28;20084;-79
2024/03/10 03:04:55;;;;;;;39.97;21.70;;;;;;;;;;5018515;28;20040;-79
2024/03/10 03:07:24;;;;;;;37.80;21.30;;;;;;;;;;4976920;28;20066;-79
2024/03/10 03:09:50;;;;;;;39.35;20.77;;;;;;;;;;4982218;28;20034;-78
2024/03/10 03:12:20;;;;;;;35.35;21.25;;;;;;;;;;5006838;28;20084;-79
2024/03/10 03:14:48;;;;;;;34.25;19.88;;;;;;;;;;5004725;28;20038;-79
2024/03/10 03:17:24;;;;;;;38.63;21.25;;;;;;;;;;5009492;28;20054;-80
2024/03/10 03:19:54;;;;;;;34.95;20.10;;;;;;;;;;5005528;28;20054;-81
2024/03/10 03:22:19;;;;;;;39.13;20.70;;;;;;;;;;4991207;28;20034;-79
2024/03/10 03:24:45;;;;;;;39.88;21.55;;;;;;;;;;5017784;28;20025;-78
2024/03/10 03:27:16;;;;;;;38.92;21.80;;;;;;;;;;5002004;28;20030;-79
2024/03/10 03:29:43;;;;;;;38.25;20.85;;;;;;;;;;4986759;28;20041;-79
2024/03/10 03:32:13;;;;;;;37.85;19.98;;;;;;;;;;5009230;28;20527;-80
2024/03/10 03:34:41;;;;;;;36.40;21.10;;;;;;;;;;5009242;28;20097;-79
2024/03/10 03:37:10;;;;;;;37.22;20.90;;;;;;;;;;4986174;28;20046;-79
2024/03/10 03:39:38;;;;;;;40.45;21.10;;;;;;;;;;4986644;28;20503;-80
2024/03/10 03:42:03;;;;;;;35.75;20.48;;;;;;;;;;4986626;28;20097;-80
2024/03/10 03:44:29;;;;;;;35.03;20.27;;;;;;;;;;5008894;28;20493;-80
2024/03/10 03:46:55;;;;;;;44.63;23.15;;;;;;;;;;4986446;28;20061;-79
2024/03/10 03:49:20;;;;;;;37.10;20.35;;;;;;;;;;4969065;28;20030;-81
2024/03/10 03:51:46;;;;;;;37.47;20.23;;;;;;;;;;4983934;28;20037;-79
2024/03/10 03:54:13;;;;;;;35.67;20.05;;;;;;;;;;4998153;28;20030;-79
2024/03/10 03:56:40;;;;;;;38.55;20.10;;;;;;;;;;4989863;28;20034;-80
2024/03/10 03:59:08;;;;;;;36.10;20.58;;;;;;;;;;5020225;28;20048;-80
2024/03/10 04:01:34;;;;;;;38.42;21.10;;;;;;;;;;5003206;28;20037;-79
2024/03/10 04:04:01;;;;;;;38.20;20.75;;;;;;;;;;4986809;28;20525;-80
2024/03/10 04:06:28;;;;;;;34.00;21.02;;;;;;;;;;4993515;28;20065;-79
2024/03/10 04:08:53;;;;;;;36.17;20.13;;;;;;;;;;4993801;28;20084;-79
2024/03/10 04:11:21;;;;;;;39.72;21.10;;;;;;;;;;5020190;28;20021;-79
2024/03/10 04:13:46;;;;;;;36.15;19.27;;;;;;;;;;5008179;28;20026;-80
2024/03/10 04:16:12;;;;;;;32.85;20.30;;;;;;;;;;5000993;28;20025;-79
2024/03/10 04:18:38;;;;;;;34.80;19.52;;;;;;;;;;5001540;28;20045;-79
2024/03/10 04:21:04;;;;;;;33.88;19.25;;;;;;;;;;5017709;28;20045;-80
2024/03/10 04:23:30;;;;;;;33.83;19.10;;;;;;;;;;4991623;28;20109;-79
2024/03/10 04:25:57;;;;;;;34.70;18.63;;;;;;;;;;4981674;28;20501;-79
2024/03/10 04:28:23;;;;;;;35.67;20.80;;;;;;;;;;4998823;28;20461;-80
2024/03/10 04:30:49;;;;;;;37.20;20.55;;;;;;;;;;4981947;28;20065;-78
2024/03/10 04:33:15;;;;;;;36.03;20.13;;;;;;;;;;4990891;28;20040;-80
2024/03/10 04:35:44;;;;;;;36.17;20.42;;;;;;;;;;4992309;28;20064;-80
2024/03/10 04:38:10;;;;;;;36.60;19.70;;;;;;;;;;4987350;28;20041;-79
2024/03/10 04:40:35;;;;;;;36.80;19.98;;;;;;;;;;4994852;28;20034;-79
2024/03/10 04:43:02;;;;;;;32.05;19.35;;;;;;;;;;5005487;28;20052;-79
2024/03/10 04:45:27;;;;;;;31.55;18.67;;;;;;;;;;4987647;28;20101;-80
2024/03/10 04:47:53;;;;;;;35.35;19.42;;;;;;;;;;4971692;28;20100;-80
2024/03/10 04:50:21;;;;;;;31.23;18.08;;;;;;;;;;4985049;28;20060;-80
2024/03/10 04:52:46;;;;;;;35.10;20.00;;;;;;;;;;5001883;28;20058;-80
2024/03/10 04:55:16;;;;;;;34.67;19.98;;;;;;;;;;5001646;28;20041;-80
2024/03/10 05:00:33;;;;;;;35.65;18.83;;;;;;;;;;5009523;28;20086;-79
2024/03/10 05:03:05;;;;;;;37.22;19.65;;;;;;;;;;4994995;28;20051;-80
2024/03/10 05:05:31;;;;;;;32.40;18.90;;;;;;;;;;4989855;28;20030;-80
2024/03/10 05:07:57;;;;;;;34.88;18.30;;;;;;;;;;4986073;28;20102;-81
2024/03/10 05:10:25;;;;;;;36.33;18.88;;;;;;;;;;5017959;28;20037;-80
2024/03/10 05:13:24;;;;;;;32.67;18.75;;;;;;;;;;5008010;28;20040;-79
2024/03/10 05:15:55;;;;;;;36.03;19.73;;;;;;;;;;4997217;28;20656;-79
2024/03/10 05:18:31;;;;;;;32.28;18.23;;;;;;;;;;5000617;28;20417;-80
2024/03/10 05:21:00;;;;;;;33.58;18.30;;;;;;;;;;4990629;28;20039;-79
2024/03/10 05:23:38;;;;;;;36.45;19.58;;;;;;;;;;4989428;28;20058;-80
2024/03/10 05:26:06;;;;;;;38.95;19.88;;;;;;;;;;5004133;28;20088;-79
2024/03/10 05:28:45;;;;;;;34.60;19.02;;;;;;;;;;5001860;28;20042;-79
2024/03/10 05:31:30;;;;;;;35.38;19.13;;;;;;;;;;5004598;28;20423;-78
2024/03/10 05:33:57;;;;;;;33.03;19.48;;;;;;;;;;4974094;28;20037;-79
2024/03/10 05:36:25;;;;;;;34.92;18.88;;;;;;;;;;4993721;28;20030;-80
2024/03/10 05:38:51;;;;;;;34.13;18.92;;;;;;;;;;4989652;28;20044;-79
2024/03/10 05:41:17;;;;;;;36.80;19.70;;;;;;;;;;4995794;28;20034;-79
2024/03/10 05:43:42;;;;;;;35.45;19.40;;;;;;;;;;4991813;28;20105;-79
2024/03/10 05:46:09;;;;;;;35.08;19.67;;;;;;;;;;5006216;28;20022;-80
2024/03/10 05:48:36;;;;;;;35.03;19.60;;;;;;;;;;5003321;28;20087;-81
2024/03/10 05:51:11;;;;;;;34.35;19.45;;;;;;;;;;5011692;28;20034;-79
2024/03/10 05:53:37;;;;;;;33.22;18.60;;;;;;;;;;4988137;28;20038;-79
2024/03/10 05:56:05;;;;;;;34.92;19.15;;;;;;;;;;5003278;28;20064;-79
2024/03/10 05:58:40;;;;;;;34.22;19.80;;;;;;;;;;5003669;28;20501;-79
2024/03/10 06:01:07;;;;;;;38.35;20.88;;;;;;;;;;4991589;28;20407;-81
2024/03/10 06:03:33;;;;;;;41.90;21.17;;;;;;;;;;4993385;28;20374;-79
2024/03/10 06:06:04;;;;;;;34.53;20.13;;;;;;;;;;5018210;28;20110;-79
2024/03/10 06:08:36;;;;;;;33.63;18.95;;;;;;;;;;4994785;28;20042;-79
2024/03/10 06:11:04;;;;;;;34.15;19.17;;;;;;;;;;5012908;28;20046;-80
2024/03/10 06:13:30;;;;;;;31.50;17.75;;;;;;;;;;4981779;28;20446;-79
2024/03/10 06:15:56;;;;;;;33.72;18.98;;;;;;;;;;4998842;28;20066;-80
2024/03/10 06:18:31;;;;;;;32.72;18.13;;;;;;;;;;5006723;28;20030;-80
2024/03/10 06:26:31;;;;;;;32.28;17.98;;;;;;;;;;5008424;28;20030;-80
2024/03/10 06:29:04;;;;;;;38.05;18.63;;;;;;;;;;5008174;28;20034;-81
2024/03/10 06:31:30;;;;;;;35.80;19.40;;;;;;;;;;5018006;28;20734;-80
2024/03/10 06:33:57;;;;;;;36.63;18.73;;;;;;;;;;4978061;28;20035;-80
2024/03/10 06:36:22;;;;;;;33.67;18.15;;;;;;;;;;4980266;28;20031;-79
2024/03/10 06:38:48;;;;;;;32.33;18.85;;;;;;;;;;4964520;28;20031;-80
2024/03/10 06:41:15;;;;;;;34.35;18.52;;;;;;;;;;4985816;28;20031;-80
2024/03/10 06:43:41;;;;;;;32.30;17.75;;;;;;;;;;4993461;28;20026;-79
2024/03/10 06:46:09;;;;;;;29.10;15.90;;;;;;;;;;4998003;28;20057;-79
2024/03/10 06:48:41;;;;;;;31.73;17.15;;;;;;;;;;4964203;28;20046;-82
2024/03/10 06:51:13;;;;;;;29.63;17.83;;;;;;;;;;4977193;28;20042;-80
2024/03/10 06:53:42;;;;;;;31.50;17.35;;;;;;;;;;4964571;28;20057;-79
2024/03/10 06:56:16;;;;;;;32.70;18.27;;;;;;;;;;4973834;28;20046;-79
2024/03/10 06:58:44;;;;;;;31.33;17.67;;;;;;;;;;4989797;28;20444;-80
2024/03/10 07:01:10;;;;;;;32.50;17.98;;;;;;;;;;5013702;28;20033;-79
2024/03/10 07:03:36;;;;;;;31.55;17.10;;;;;;;;;;4987128;28;20030;-80
2024/03/10 07:06:03;;;;;;;34.00;18.55;;;;;;;;;;4984338;28;20137;-78
2024/03/10 07:08:32;;;;;;;31.25;18.05;;;;;;;;;;4972221;28;20046;-79
2024/03/10 07:10:58;;;;;;;29.13;17.15;;;;;;;;;;4980289;28;20077;-81
2024/03/10 07:13:24;;;;;;;29.48;17.75;;;;;;;;;;4989898;28;20038;-80
2024/03/10 07:15:53;;;;;;;29.27;17.13;;;;;;;;;;5004069;28;20053;-79
2024/03/10 07:18:20;;;;;;;28.10;17.05;;;;;;;;;;4985164;28;20046;-79
2024/03/10 07:20:47;;;;;;;27.77;16.17;;;;;;;;;;4984900;28;20069;-79
2024/03/10 07:23:13;;;;;;;30.63;17.27;;;;;;;;;;5002504;28;20014;-79
2024/03/10 07:25:41;;;;;;;28.50;17.45;;;;;;;;;;5018903;28;20015;-79
2024/03/10 07:28:07;;;;;;;31.00;16.67;;;;;;;;;;5018329;28;20031;-80
2024/03/10 07:30:33;;;;;;;28.08;17.75;;;;;;;;;;4980960;28;20118;-79
2024/03/10 07:32:59;;;;;;;31.83;17.48;;;;;;;;;;4978818;28;20436;-79
2024/03/10 07:35:27;;;;;;;28.60;16.00;;;;;;;;;;4944514;28;20039;-80
2024/03/10 07:37:53;;;;;;;28.98;16.65;;;;;;;;;;4999890;28;20040;-80
2024/03/10 07:40:19;;;;;;;30.83;16.10;;;;;;;;;;4996624;28;20030;-79
2024/03/10 07:42:48;;;;;;;31.05;17.45;;;;;;;;;;5008908;28;20034;-80
2024/03/10 07:45:17;;;;;;;30.75;16.38;;;;;;;;;;5000426;28;20417;-80
2024/03/10 07:47:44;;;;;;;30.77;17.15;;;;;;;;;;5013541;28;20030;-80
2024/03/10 07:50:11;;;;;;;32.15;17.10;;;;;;;;;;4987011;28;20038;-79
2024/03/10 07:52:40;;;;;;;27.67;17.40;;;;;;;;;;4976535;28;20026;-80
2024/03/10 07:55:06;;;;;;;30.10;16.88;;;;;;;;;;4976647;28;20034;-79
2024/03/10 07:57:34;;;;;;;27.85;16.50;;;;;;;;;;4968987;28;20044;-80
2024/03/10 08:00:00;;;;;;;29.00;16.65;;;;;;;;;;4996002;28;20120;-79
2024/03/10 08:02:26;;;;;;;31.67;18.95;;;;;;;;;;4978633;28;20062;-78
2024/03/10 08:04:52;;;;;;;32.38;18.35;;;;;;;;;;4997503;28;20468;-78
2024/03/10 08:07:18;;;;;;;28.92;16.00;;;;;;;;;;5004298;28;20049;-80
2024/03/10 08:09:43;;;;;;;30.30;17.67;;;;;;;;;;5013623;28;20496;-80
2024/03/10 08:12:10;;;;;;;27.70;16.42;;;;;;;;;;4996291;28;20045;-79
2024/03/10 08:14:39;;;;;;;30.65;17.10;;;;;;;;;;4976855;28;20034;-80
2024/03/10 08:17:07;;;;;;;28.13;15.85;;;;;;;;;;4976399;28;20046;-80
2024/03/10 08:19:33;;;;;;;27.85;16.83;;;;;;;;;;4992450;28;20027;-79
2024/03/10 08:21:59;;;;;;;26.65;16.77;;;;;;;;;;5007436;28;20033;-80
2024/03/10 08:24:26;;;;;;;29.38;17.45;;;;;;;;;;4972003;28;20129;-80
2024/03/10 08:26:52;;;;;;;26.73;15.88;;;;;;;;;;4984801;28;20474;-78
2024/03/10 08:29:17;;;;;;;31.92;17.67;;;;;;;;;;4977919;28;20041;-80
2024/03/10 08:31:43;;;;;;;29.83;16.75;;;;;;;;;;4989753;28;20112;-81
2024/03/10 08:34:09;;;;;;;32.40;16.92;;;;;;;;;;4997542;28;20124;-79
2024/03/10 08:36:36;;;;;;;26.20;15.93;;;;;;;;;;4982135;28;21111;-79
2024/03/10 08:39:08;;;;;;;32.13;17.20;;;;;;;;;;4981081;28;20069;-78
2024/03/10 08:41:34;;;;;;;26.27;16.08;;;;;;;;;;4968664;28;20035;-79
2024/03/10 08:44:01;;;;;;;29.65;15.35;;;;;;;;;;4960362;28;20030;-78
2024/03/10 08:46:27;;;;;;;25.85;15.15;;;;;;;;;;4969282;28;20137;-81
2024/03/10 08:48:52;;;;;;;25.83;15.82;;;;;;;;;;4971181;28;20470;-80
2024/03/10 08:51:18;;;;;;;26.23;15.55;;;;;;;;;;4982115;28;20046;-80
2024/03/10 08:53:44;;;;;;;27.23;16.38;;;;;;;;;;4985173;28;20098;-79
2024/03/10 08:56:09;;;;;;;25.50;15.00;;;;;;;;;;4968928;28;20483;-79
2024/03/10 08:58:35;;;;;;;27.30;15.70;;;;;;;;;;4986397;28;20042;-81
2024/03/10 09:01:00;;;;;;;27.00;16.67;;;;;;;;;;4968822;28;20165;-80
2024/03/10 09:03:26;;;;;;;28.45;16.10;;;;;;;;;;5001310;28;20030;-79
2024/03/10 09:05:53;;;;;;;28.67;16.40;;;;;;;;;;5009929;28;20026;-79
2024/03/10 09:08:19;;;;;;;27.95;15.77;;;;;;;;;;4984898;28;20033;-81
2024/03/10 09:10:44;;;;;;;30.88;16.70;;;;;;;;;;4980759;28;20437;-80
2024/03/10 09:13:10;;;;;;;30.77;16.13;;;;;;;;;;4989372;28;20092;-81
2024/03/10 09:15:35;;;;;;;29.27;15.63;;;;;;;;;;4973006;28;20054;-80
2024/03/10 09:18:01;;;;;;;28.30;16.35;;;;;;;;;;5011454;28;20078;-80
2024/03/10 09:20:28;;;;;;;26.13;15.57;;;;;;;;;;4983844;28;20034;-79
2024/03/10 09:22:54;;;;;;;26.60;15.98;;;;;;;;;;4969848;28;20026;-80
2024/03/10 09:25:22;;;;;;;28.63;16.60;;;;;;;;;;4983077;28;20058;-80
2024/03/10 09:27:51;;;;;;;27.15;15.25;;;;;;;;;;4988126;28;20058;-79
2024/03/10 09:30:21;;;;;;;29.90;16.35;;;;;;;;;;4993593;28;20049;-81
2024/03/10 09:32:50;;;;;;;27.20;15.20;;;;;;;;;;4977079;28;20030;-78
2024/03/10 09:35:35;;;;;;;25.55;15.95;;;;;;;;;;5014720;28;20524;-81
2024/03/10 09:38:05;;;;;;;28.13;15.70;;;;;;;;;;4994769;28;20480;-79
2024/03/10 09:40:30;;;;;;;25.52;15.15;;;;;;;;;;5000551;28;20061;-80
2024/03/10 09:42:57;;;;;;;27.63;16.05;;;;;;;;;;4996435;28;20033;-80
2024/03/10 09:45:24;;;;;;;28.42;15.63;;;;;;;;;;4967593;28;20462;-80
2024/03/10 09:47:50;;;;;;;25.27;16.85;;;;;;;;;;4993342;28;20034;-80
2024/03/10 09:50:22;;;;;;;28.10;15.48;;;;;;;;;;5010162;28;20068;-79
2024/03/10 09:52:52;;;;;;;27.27;15.88;;;;;;;;;;4965398;28;20445;-80
2024/03/10 09:55:20;;;;;;;28.33;14.90;;;;;;;;;;4985683;28;20128;-79
2024/03/10 09:57:54;;;;;;;29.00;15.88;;;;;;;;;;5016682;28;20453;-80
2024/03/10 10:00:27;;;;;;;29.80;15.77;;;;;;;;;;4992021;28;20084;-80
2024/03/10 10:03:07;;;;;;;26.15;15.48;;;;;;;;;;4970601;28;20445;-80
2024/03/10 10:05:38;;;;;;;24.65;15.50;;;;;;;;;;4982106;28;20034;-79
2024/03/10 10:08:10;;;;;;;22.60;14.77;;;;;;;;;;5000444;28;20089;-80
2024/03/10 10:10:36;;;;;;;25.45;15.43;;;;;;;;;;4998437;28;20030;-81
2024/03/10 10:13:03;;;;;;;24.90;13.85;;;;;;;;;;5017086;28;20032;-80
2024/03/10 10:15:32;;;;;;;24.70;14.75;;;;;;;;;;4982165;28;20034;-81
2024/03/10 10:18:02;;;;;;;23.85;14.35;;;;;;;;;;4978776;28;20037;-81
2024/03/10 10:20:30;;;;;;;26.25;13.55;;;;;;;;;;5012305;28;20022;-79
2024/03/10 10:22:56;;;;;;;23.98;13.75;;;;;;;;;;5003874;28;20026;-80
2024/03/10 10:25:22;;;;;;;29.15;14.98;;;;;;;;;;5011713;28;20058;-80
2024/03/10 10:27:49;;;;;;;25.88;14.60;;;;;;;;;;5019265;28;20031;-80
2024/03/10 10:30:22;;;;;;;25.23;14.23;;;;;;;;;;5020137;28;20034;-80
2024/03/10 10:33:03;;;;;;;24.20;13.68;;;;;;;;;;5003850;28;20106;-80
2024/03/10 10:35:30;;;;;;;24.42;14.52;;;;;;;;;;4986553;28;20038;-81
2024/03/10 10:37:56;;;;;;;19.42;13.30;;;;;;;;;;4989225;28;20034;-79
2024/03/10 10:40:22;;;;;;;24.60;15.07;;;;;;;;;;5002332;28;20497;-79
2024/03/10 10:42:49;;;;;;;20.67;12.65;;;;;;;;;;5003132;28;20438;-80
2024/03/10 10:45:16;;;;;;;22.83;13.45;;;;;;;;;;4982356;28;20033;-78
2024/03/10 10:47:41;;;;;;;23.55;13.55;;;;;;;;;;4953412;28;20120;-78
2024/03/10 10:50:14;;;;;;;21.33;12.65;;;;;;;;;;4966689;28;20062;-79
2024/03/10 10:52:41;;;;;;;22.98;13.00;;;;;;;;;;5022644;28;20037;-79
2024/03/10 10:55:07;;;;;;;25.45;12.82;;;;;;;;;;4993684;28;20466;-80
2024/03/10 10:57:33;;;;;;;21.02;12.80;;;;;;;;;;4982760;28;20050;-80
2024/03/10 10:59:59;;;;;;;20.40;12.50;;;;;;;;;;4984414;28;20102;-79
2024/03/10 11:02:25;;;;;;;22.35;14.65;;;;;;;;;;4984058;28;20164;-79
2024/03/10 11:04:53;;;;;;;23.90;12.57;;;;;;;;;;4983525;28;20539;-78
2024/03/10 11:07:18;;;;;;;23.17;14.10;;;;;;;;;;4978548;28;20041;-81
2024/03/10 11:09:44;;;;;;;25.95;13.63;;;;;;;;;;5005784;28;20034;-81
2024/03/10 11:12:23;;;;;;;22.25;13.27;;;;;;;;;;4978561;28;20133;-79
2024/03/10 11:14:49;;;;;;;22.08;13.10;;;;;;;;;;4989875;28;20141;-80
2024/03/10 11:17:16;;;;;;;18.50;12.10;;;;;;;;;;4992298;28;20029;-79
2024/03/10 11:20:00;;;;;;;20.83;12.35;;;;;;;;;;5001057;28;20034;-81
2024/03/10 11:22:27;;;;;;;21.75;12.55;;;;;;;;;;5015016;28;20026;-81
2024/03/10 11:25:16;;;;;;;19.88;11.82;;;;;;;;;;4985039;28;20448;-79
2024/03/10 11:27:45;;;;;;;19.17;12.57;;;;;;;;;;4983986;28;20507;-79
2024/03/10 11:30:29;;;;;;;19.77;12.20;;;;;;;;;;4985019;28;20041;-80
2024/03/10 11:33:03;;;;;;;20.10;12.23;;;;;;;;;;4963316;28;20121;-80
2024/03/10 11:35:30;;;;;;;17.60;11.35;;;;;;;;;;4965215;28;20463;-81
2024/03/10 11:37:59;;;;;;;18.63;11.80;;;;;;;;;;4963503;28;20088;-80
2024/03/10 11:40:30;;;;;;;18.38;11.90;;;;;;;;;;5005621;28;20034;-79
2024/03/10 11:43:01;;;;;;;20.48;12.05;;;;;;;;;;5010248;28;20430;-80
2024/03/10 11:45:26;;;;;;;22.08;11.70;;;;;;;;;;4990238;28;20049;-80
2024/03/10 11:47:55;;;;;;;19.90;12.15;;;;;;;;;;4974108;28;20085;-82
2024/03/10 11:50:21;;;;;;;20.40;11.98;;;;;;;;;;5005322;28;20197;-81
2024/03/10 11:52:48;;;;;;;20.15;11.13;;;;;;;;;;5007142;28;20061;-81
2024/03/10 11:55:21;;;;;;;21.15;12.77;;;;;;;;;;4986765;28;20056;-79
2024/03/10 11:57:53;;;;;;;21.05;12.65;;;;;;;;;;4999027;28;20050;-80
2024/03/10 12:00:21;;;;;;;17.45;11.43;;;;;;;;;;5015513;28;20042;-80
2024/03/10 12:02:53;;;;;;;20.42;12.60;;;;;;;;;;4971331;28;20023;-80
2024/03/10 12:05:18;;;;;;;19.17;12.55;;;;;;;;;;4982993;28;20038;-79
2024/03/10 12:07:50;;;;;;;18.40;12.63;;;;;;;;;;4978181;28;20072;-79
2024/03/10 12:10:16;;;;;;;18.17;11.40;;;;;;;;;;4971079;28;20027;-79
2024/03/10 12:12:46;;;;;;;19.15;12.05;;;;;;;;;;4983527;28;20377;-81
2024/03/10 12:15:17;;;;;;;18.08;11.68;;;;;;;;;;4981928;28;20049;-79
2024/03/10 12:17:46;;;;;;;20.08;12.05;;;;;;;;;;5010283;28;20547;-80
2024/03/10 12:20:14;;;;;;;19.20;12.23;;;;;;;;;;4985403;28;20033;-79
2024/03/10 12:22:43;;;;;;;21.67;12.30;;;;;;;;;;4997965;28;20022;-80
2024/03/10 12:25:09;;;;;;;18.70;11.98;;;;;;;;;;4974277;28;20041;-79
2024/03/10 12:27:39;;;;;;;17.95;11.38;;;;;;;;;;4983559;28;20403;-79
2024/03/10 12:30:11;;;;;;;19.15;11.93;;;;;;;;;;4998607;28;20060;-78
2024/03/10 12:32:44;;;;;;;18.73;10.75;;;;;;;;;;4984471;28;20038;-79
2024/03/10 12:35:10;;;;;;;17.65;11.25;;;;;;;;;;4974775;28;20038;-78
2024/03/10 12:37:38;;;;;;;18.58;10.73;;;;;;;;;;4983669;28;20122;-80
2024/03/10 12:40:05;;;;;;;17.43;10.40;;;;;;;;;;4970595;28;20030;-80
2024/03/10 12:42:31;;;;;;;15.82;9.90;;;;;;;;;;4991604;28;20273;-80
2024/03/10 12:44:58;;;;;;;16.77;9.68;;;;;;;;;;4978433;28;20029;-78
2024/03/10 12:47:23;;;;;;;14.45;9.00;;;;;;;;;;4985685;28;20027;-80
2024/03/10 12:49:49;;;;;;;15.27;9.52;;;;;;;;;;4986834;28;20150;-79
2024/03/10 12:52:14;;;;;;;14.98;8.82;;;;;;;;;;4979969;28;20462;-79
2024/03/10 12:54:40;;;;;;;13.10;9.40;;;;;;;;;;4970006;28;20030;-81
2024/03/10 12:57:06;;;;;;;13.75;9.05;;;;;;;;;;4984419;28;20041;-79
2024/03/10 12:59:32;;;;;;;16.77;9.32;;;;;;;;;;4979913;28;20624;-79
2024/03/10 13:01:58;;;;;;;13.73;9.70;;;;;;;;;;4969452;28;20045;-80
2024/03/10 13:04:23;;;;;;;16.80;10.23;;;;;;;;;;4980236;28;20026;-79
2024/03/10 13:06:49;;;;;;;14.20;9.93;;;;;;;;;;4997730;28;20024;-79
2024/03/10 13:09:16;;;;;;;13.88;9.20;;;;;;;;;;4979554;28;20026;-80
2024/03/10 13:11:42;;;;;;;14.88;9.55;;;;;;;;;;5016461;28;20026;-80
2024/03/10 13:14:08;;;;;;;16.90;9.80;;;;;;;;;;4966921;28;20198;-81
2024/03/10 13:16:34;;;;;;;13.02;9.25;;;;;;;;;;4981863;28;20138;-80
2024/03/10 13:19:01;;;;;;;15.10;9.65;;;;;;;;;;4988777;28;20030;-79
2024/03/10 13:21:27;;;;;;;18.10;10.13;;;;;;;;;;4968921;28;20061;-81
2024/03/10 13:23:52;;;;;;;14.45;8.95;;;;;;;;;;5003489;28;20019;-82
2024/03/10 13:26:18;;;;;;;14.52;9.05;;;;;;;;;;4998938;28;20029;-80
2024/03/10 13:28:45;;;;;;;17.20;10.23;;;;;;;;;;4978691;28;20050;-79
2024/03/10 13:31:10;;;;;;;16.05;10.52;;;;;;;;;;4994745;28;20030;-79
2024/03/10 13:33:37;;;;;;;14.10;9.73;;;;;;;;;;4995583;28;20429;-79
2024/03/10 13:36:04;;;;;;;16.17;10.40;;;;;;;;;;5008152;28;20021;-80
2024/03/10 13:38:31;;;;;;;17.73;10.38;;;;;;;;;;4995030;28;20031;-81
2024/03/10 13:40:57;;;;;;;18.05;11.30;;;;;;;;;;4968440;28;20088;-80
2024/03/10 13:43:23;;;;;;;16.42;10.50;;;;;;;;;;4964192;28;20035;-79
2024/03/10 13:45:50;;;;;;;17.02;10.70;;;;;;;;;;4978047;28;20042;-80
2024/03/10 13:48:16;;;;;;;21.23;10.95;;;;;;;;;;4976544;28;20354;-79
2024/03/10 13:50:42;;;;;;;16.15;10.48;;;;;;;;;;4991858;28;20030;-80
2024/03/10 13:53:09;;;;;;;19.75;11.65;;;;;;;;;;4984285;28;20049;-79
2024/03/10 13:55:36;;;;;;;19.40;11.93;;;;;;;;;;4979735;28;20037;-81
2024/03/10 13:58:04;;;;;;;17.48;11.77;;;;;;;;;;4971139;28;20038;-80
2024/03/10 14:00:30;;;;;;;19.20;12.20;;;;;;;;;;4990557;28;20038;-79
2024/03/10 14:02:55;;;;;;;21.33;12.10;;;;;;;;;;5007371;28;20026;-80
2024/03/10 14:05:21;;;;;;;20.88;12.15;;;;;;;;;;5001131;28;20026;-79
2024/03/10 14:07:47;;;;;;;21.17;11.98;;;;;;;;;;4973133;28;20034;-80
2024/03/10 14:10:16;;;;;;;16.92;11.23;;;;;;;;;;4999159;28;20033;-78
2024/03/10 14:12:43;;;;;;;18.27;12.13;;;;;;;;;;4989406;28;20053;-79
2024/03/10 14:15:14;;;;;;;21.33;12.00;;;;;;;;;;4980562;28;20094;-79
2024/03/10 14:17:41;;;;;;;22.33;12.13;;;;;;;;;;5004361;28;20030;-79
2024/03/10 14:20:13;;;;;;;21.83;12.52;;;;;;;;;;4983839;28;20046;-80
2024/03/10 14:22:43;;;;;;;23.92;12.43;;;;;;;;;;4980195;28;20046;-80
2024/03/10 14:25:11;;;;;;;22.15;12.68;;;;;;;;;;5006711;28;20029;-79
2024/03/10 14:27:38;;;;;;;18.95;12.80;;;;;;;;;;4995863;28;20113;-79
2024/03/10 14:30:09;;;;;;;18.75;12.25;;;;;;;;;;4973298;28;20026;-79
2024/03/10 14:32:35;;;;;;;20.65;12.07;;;;;;;;;;4997538;28;20034;-79
2024/03/10 14:35:01;;;;;;;16.67;11.13;;;;;;;;;;4986363;28;20039;-79
2024/03/10 14:37:27;;;;;;;20.85;11.90;;;;;;;;;;4974624;28;20196;-80
2024/03/10 14:39:55;;;;;;;17.25;11.75;;;;;;;;;;5007901;28;20026;-78
2024/03/10 14:42:21;;;;;;;21.30;13.52;;;;;;;;;;4975655;28;20030;-80
2024/03/10 14:44:48;;;;;;;18.48;11.23;;;;;;;;;;5009913;28;20045;-79
2024/03/10 14:47:13;;;;;;;20.10;11.90;;;;;;;;;;4986714;28;20037;-77